sensor_id;sensor_type;location;lat;lon;timestamp;P1;durP1;ratioP1;P2;durP2;ratioP2
43142;SDS011;28750;59.842;17.584;2023-11-21T00:02:04;0.32;;;0.30;;
43142;SDS011;28750;59.842;17.584;2023-11-21T00:04:32;0.30;;;0.30;;
43142;SDS011;28750;59.842;17.584;2023-11-21T00:06:59;0.20;;;0.20;;
43142;SDS011;28750;59.842;17.584;2023-11-21T00:09:27;0.28;;;0.28;;
43142;SDS011;28750;59.842;17.584;2023-11-21T00:11:54;0.55;;;0.30;;
43142;SDS011;28750;59.842;17.584;2023-11-21T00:14:22;0.28;;;0.25;;
43142;SDS011;28750;59.842;17.584;2023-11-21T00:16:49;0.52;;;0.50;;
43142;SDS011;28750;59.842;17.584;2023-11-21T00:19:16;0.40;;;0.30;;
43142;SDS011;28750;59.842;17.584;2023-11-21T00:21:44;0.30;;;0.30;;
43142;SDS011;28750;59.842;17.584;2023-11-21T00:24:11;0.30;;;0.30;;
43142;SDS011;28750;59.842;17.584;2023-11-21T00:26:40;0.65;;;0.50;;
43142;SDS011;28750;59.842;17.584;2023-11-21T00:29:07;0.40;;;0.40;;
43142;SDS011;28750;59.842;17.584;2023-11-21T00:31:36;2.25;;;0.40;;
43142;SDS011;28750;59.842;17.584;2023-11-21T00:34:03;0.45;;;0.45;;
43142;SDS011;28750;59.842;17.584;2023-11-21T00:36:31;0.60;;;0.50;;
43142;SDS011;28750;59.842;17.584;2023-11-21T00:38:59;0.60;;;0.45;;
43142;SDS011;28750;59.842;17.584;2023-11-21T00:41:28;0.52;;;0.50;;
43142;SDS011;28750;59.842;17.584;2023-11-21T00:43:55;0.52;;;0.50;;
43142;SDS011;28750;59.842;17.584;2023-11-21T00:46:24;0.40;;;0.40;;
43142;SDS011;28750;59.842;17.584;2023-11-21T00:48:54;0.75;;;0.63;;
43142;SDS011;28750;59.842;17.584;2023-11-21T00:51:21;0.82;;;0.60;;
43142;SDS011;28750;59.842;17.584;2023-11-21T00:53:49;0.60;;;0.60;;
43142;SDS011;28750;59.842;17.584;2023-11-21T00:56:17;0.77;;;0.70;;
43142;SDS011;28750;59.842;17.584;2023-11-21T00:58:44;0.57;;;0.57;;
43142;SDS011;28750;59.842;17.584;2023-11-21T01:01:15;0.55;;;0.50;;
43142;SDS011;28750;59.842;17.584;2023-11-21T01:03:42;0.60;;;0.60;;
43142;SDS011;28750;59.842;17.584;2023-11-21T01:06:11;0.90;;;0.60;;
43142;SDS011;28750;59.842;17.584;2023-11-21T01:08:39;1.00;;;0.80;;
43142;SDS011;28750;59.842;17.584;2023-11-21T01:11:07;0.40;;;0.40;;
43142;SDS011;28750;59.842;17.584;2023-11-21T01:13:37;0.68;;;0.68;;
43142;SDS011;28750;59.842;17.584;2023-11-21T01:16:05;0.73;;;0.73;;
43142;SDS011;28750;59.842;17.584;2023-11-21T01:18:32;3.08;;;0.70;;
43142;SDS011;28750;59.842;17.584;2023-11-21T01:21:00;1.13;;;1.02;;
43142;SDS011;28750;59.842;17.584;2023-11-21T01:23:27;1.05;;;1.00;;
43142;SDS011;28750;59.842;17.584;2023-11-21T01:25:56;0.80;;;0.80;;
43142;SDS011;28750;59.842;17.584;2023-11-21T01:28:23;1.25;;;0.60;;
43142;SDS011;28750;59.842;17.584;2023-11-21T01:30:51;0.77;;;0.68;;
43142;SDS011;28750;59.842;17.584;2023-11-21T01:33:21;0.80;;;0.80;;
43142;SDS011;28750;59.842;17.584;2023-11-21T01:35:50;0.80;;;0.80;;
43142;SDS011;28750;59.842;17.584;2023-11-21T01:38:20;1.30;;;0.93;;
43142;SDS011;28750;59.842;17.584;2023-11-21T01:40:48;0.80;;;0.80;;
43142;SDS011;28750;59.842;17.584;2023-11-21T01:43:15;1.00;;;1.00;;
43142;SDS011;28750;59.842;17.584;2023-11-21T01:45:43;1.50;;;1.40;;
43142;SDS011;28750;59.842;17.584;2023-11-21T01:48:11;1.55;;;1.30;;
43142;SDS011;28750;59.842;17.584;2023-11-21T01:50:41;1.50;;;1.00;;
43142;SDS011;28750;59.842;17.584;2023-11-21T01:53:11;1.80;;;1.30;;
43142;SDS011;28750;59.842;17.584;2023-11-21T01:55:40;1.40;;;1.10;;
43142;SDS011;28750;59.842;17.584;2023-11-21T01:58:09;1.40;;;1.30;;
43142;SDS011;28750;59.842;17.584;2023-11-21T02:00:37;1.35;;;1.20;;
43142;SDS011;28750;59.842;17.584;2023-11-21T02:03:05;1.30;;;1.20;;
43142;SDS011;28750;59.842;17.584;2023-11-21T02:05:33;1.60;;;1.40;;
43142;SDS011;28750;59.842;17.584;2023-11-21T02:08:01;1.90;;;1.77;;
43142;SDS011;28750;59.842;17.584;2023-11-21T02:10:30;1.40;;;1.30;;
43142;SDS011;28750;59.842;17.584;2023-11-21T02:12:57;1.40;;;1.30;;
43142;SDS011;28750;59.842;17.584;2023-11-21T02:15:25;1.90;;;1.27;;
43142;SDS011;28750;59.842;17.584;2023-11-21T02:17:54;1.92;;;1.40;;
43142;SDS011;28750;59.842;17.584;2023-11-21T02:20:23;1.30;;;1.20;;
43142;SDS011;28750;59.842;17.584;2023-11-21T02:22:51;1.33;;;1.23;;
43142;SDS011;28750;59.842;17.584;2023-11-21T02:25:23;1.42;;;1.27;;
43142;SDS011;28750;59.842;17.584;2023-11-21T02:27:51;1.73;;;1.63;;
43142;SDS011;28750;59.842;17.584;2023-11-21T02:30:19;1.58;;;1.48;;
43142;SDS011;28750;59.842;17.584;2023-11-21T02:32:47;2.55;;;1.40;;
43142;SDS011;28750;59.842;17.584;2023-11-21T02:35:18;1.75;;;1.45;;
43142;SDS011;28750;59.842;17.584;2023-11-21T02:37:46;1.92;;;1.83;;
43142;SDS011;28750;59.842;17.584;2023-11-21T02:40:14;2.17;;;1.52;;
43142;SDS011;28750;59.842;17.584;2023-11-21T02:42:48;1.50;;;1.40;;
43142;SDS011;28750;59.842;17.584;2023-11-21T02:45:17;1.60;;;1.50;;
43142;SDS011;28750;59.842;17.584;2023-11-21T02:47:46;1.63;;;1.30;;
43142;SDS011;28750;59.842;17.584;2023-11-21T02:50:14;1.73;;;1.60;;
43142;SDS011;28750;59.842;17.584;2023-11-21T02:52:44;1.98;;;1.65;;
43142;SDS011;28750;59.842;17.584;2023-11-21T02:55:11;1.92;;;1.60;;
43142;SDS011;28750;59.842;17.584;2023-11-21T02:57:39;1.83;;;1.55;;
43142;SDS011;28750;59.842;17.584;2023-11-21T03:00:06;1.70;;;1.60;;
43142;SDS011;28750;59.842;17.584;2023-11-21T03:02:34;3.10;;;1.25;;
43142;SDS011;28750;59.842;17.584;2023-11-21T03:05:05;2.40;;;1.55;;
43142;SDS011;28750;59.842;17.584;2023-11-21T03:07:34;1.95;;;1.38;;
43142;SDS011;28750;59.842;17.584;2023-11-21T03:10:01;1.92;;;1.52;;
43142;SDS011;28750;59.842;17.584;2023-11-21T03:12:29;1.80;;;1.58;;
43142;SDS011;28750;59.842;17.584;2023-11-21T03:14:57;1.20;;;1.10;;
43142;SDS011;28750;59.842;17.584;2023-11-21T03:17:24;1.60;;;1.50;;
43142;SDS011;28750;59.842;17.584;2023-11-21T03:19:52;1.98;;;1.50;;
43142;SDS011;28750;59.842;17.584;2023-11-21T03:22:19;3.15;;;1.55;;
43142;SDS011;28750;59.842;17.584;2023-11-21T03:24:47;1.65;;;1.50;;
43142;SDS011;28750;59.842;17.584;2023-11-21T03:27:14;1.65;;;1.55;;
43142;SDS011;28750;59.842;17.584;2023-11-21T03:29:42;1.98;;;1.45;;
43142;SDS011;28750;59.842;17.584;2023-11-21T03:32:10;2.15;;;1.42;;
43142;SDS011;28750;59.842;17.584;2023-11-21T03:34:52;1.90;;;1.48;;
43142;SDS011;28750;59.842;17.584;2023-11-21T03:37:20;2.05;;;1.40;;
43142;SDS011;28750;59.842;17.584;2023-11-21T03:39:48;2.88;;;1.73;;
43142;SDS011;28750;59.842;17.584;2023-11-21T03:42:15;1.88;;;1.70;;
43142;SDS011;28750;59.842;17.584;2023-11-21T03:44:43;1.60;;;1.50;;
43142;SDS011;28750;59.842;17.584;2023-11-21T03:47:10;3.15;;;1.58;;
43142;SDS011;28750;59.842;17.584;2023-11-21T03:49:38;1.50;;;1.40;;
43142;SDS011;28750;59.842;17.584;2023-11-21T03:52:05;2.78;;;1.73;;
43142;SDS011;28750;59.842;17.584;2023-11-21T03:54:34;1.45;;;1.35;;
43142;SDS011;28750;59.842;17.584;2023-11-21T03:57:02;1.60;;;1.50;;
43142;SDS011;28750;59.842;17.584;2023-11-21T03:59:30;1.63;;;1.50;;
43142;SDS011;28750;59.842;17.584;2023-11-21T04:01:57;1.58;;;1.48;;
43142;SDS011;28750;59.842;17.584;2023-11-21T04:04:25;1.67;;;1.55;;
43142;SDS011;28750;59.842;17.584;2023-11-21T04:06:52;1.40;;;1.30;;
43142;SDS011;28750;59.842;17.584;2023-11-21T04:09:20;2.00;;;1.77;;
43142;SDS011;28750;59.842;17.584;2023-11-21T04:11:50;3.15;;;1.83;;
43142;SDS011;28750;59.842;17.584;2023-11-21T04:14:18;1.70;;;1.60;;
43142;SDS011;28750;59.842;17.584;2023-11-21T04:16:46;1.52;;;1.42;;
43142;SDS011;28750;59.842;17.584;2023-11-21T04:19:13;4.65;;;1.85;;
43142;SDS011;28750;59.842;17.584;2023-11-21T04:21:42;4.85;;;2.25;;
43142;SDS011;28750;59.842;17.584;2023-11-21T04:24:09;2.45;;;1.80;;
43142;SDS011;28750;59.842;17.584;2023-11-21T04:26:37;3.53;;;1.90;;
43142;SDS011;28750;59.842;17.584;2023-11-21T04:29:04;1.88;;;1.75;;
43142;SDS011;28750;59.842;17.584;2023-11-21T04:31:32;1.52;;;1.42;;
43142;SDS011;28750;59.842;17.584;2023-11-21T04:33:59;2.20;;;2.00;;
43142;SDS011;28750;59.842;17.584;2023-11-21T04:36:29;3.30;;;1.83;;
43142;SDS011;28750;59.842;17.584;2023-11-21T04:38:57;2.30;;;1.98;;
43142;SDS011;28750;59.842;17.584;2023-11-21T04:41:24;2.75;;;2.55;;
43142;SDS011;28750;59.842;17.584;2023-11-21T04:43:51;2.42;;;1.60;;
43142;SDS011;28750;59.842;17.584;2023-11-21T04:46:19;2.42;;;1.90;;
43142;SDS011;28750;59.842;17.584;2023-11-21T04:48:46;1.90;;;1.63;;
43142;SDS011;28750;59.842;17.584;2023-11-21T04:51:14;1.92;;;1.70;;
43142;SDS011;28750;59.842;17.584;2023-11-21T04:53:41;2.47;;;2.03;;
43142;SDS011;28750;59.842;17.584;2023-11-21T04:56:09;1.83;;;1.73;;
43142;SDS011;28750;59.842;17.584;2023-11-21T04:58:36;2.10;;;1.63;;
43142;SDS011;28750;59.842;17.584;2023-11-21T05:01:05;2.97;;;2.20;;
43142;SDS011;28750;59.842;17.584;2023-11-21T05:03:33;2.25;;;1.80;;
43142;SDS011;28750;59.842;17.584;2023-11-21T05:06:00;3.20;;;1.80;;
43142;SDS011;28750;59.842;17.584;2023-11-21T05:08:30;2.38;;;1.67;;
43142;SDS011;28750;59.842;17.584;2023-11-21T05:10:57;2.30;;;2.10;;
43142;SDS011;28750;59.842;17.584;2023-11-21T05:13:25;2.65;;;1.90;;
43142;SDS011;28750;59.842;17.584;2023-11-21T05:15:54;2.60;;;2.03;;
43142;SDS011;28750;59.842;17.584;2023-11-21T05:18:22;2.58;;;2.25;;
43142;SDS011;28750;59.842;17.584;2023-11-21T05:20:52;3.00;;;2.20;;
43142;SDS011;28750;59.842;17.584;2023-11-21T05:23:20;2.63;;;2.35;;
43142;SDS011;28750;59.842;17.584;2023-11-21T05:25:47;3.00;;;2.25;;
43142;SDS011;28750;59.842;17.584;2023-11-21T05:28:14;2.55;;;2.30;;
43142;SDS011;28750;59.842;17.584;2023-11-21T05:30:42;2.30;;;2.10;;
43142;SDS011;28750;59.842;17.584;2023-11-21T05:33:09;3.00;;;2.60;;
43142;SDS011;28750;59.842;17.584;2023-11-21T05:35:36;2.85;;;2.42;;
43142;SDS011;28750;59.842;17.584;2023-11-21T05:38:04;2.90;;;2.28;;
43142;SDS011;28750;59.842;17.584;2023-11-21T05:40:31;3.58;;;2.60;;
43142;SDS011;28750;59.842;17.584;2023-11-21T05:42:59;3.45;;;2.88;;
43142;SDS011;28750;59.842;17.584;2023-11-21T05:45:26;2.60;;;2.40;;
43142;SDS011;28750;59.842;17.584;2023-11-21T05:47:54;3.67;;;2.55;;
43142;SDS011;28750;59.842;17.584;2023-11-21T05:50:21;2.30;;;2.10;;
43142;SDS011;28750;59.842;17.584;2023-11-21T05:52:48;3.25;;;2.75;;
43142;SDS011;28750;59.842;17.584;2023-11-21T05:55:16;4.68;;;3.00;;
43142;SDS011;28750;59.842;17.584;2023-11-21T05:57:46;3.25;;;2.30;;
43142;SDS011;28750;59.842;17.584;2023-11-21T06:00:14;2.67;;;2.40;;
43142;SDS011;28750;59.842;17.584;2023-11-21T06:02:45;2.85;;;2.55;;
43142;SDS011;28750;59.842;17.584;2023-11-21T06:05:15;2.67;;;2.42;;
43142;SDS011;28750;59.842;17.584;2023-11-21T06:07:43;4.22;;;3.17;;
43142;SDS011;28750;59.842;17.584;2023-11-21T06:10:10;3.50;;;3.00;;
43142;SDS011;28750;59.842;17.584;2023-11-21T06:12:39;4.13;;;3.15;;
43142;SDS011;28750;59.842;17.584;2023-11-21T06:15:08;4.97;;;3.30;;
43142;SDS011;28750;59.842;17.584;2023-11-21T06:17:38;3.63;;;3.17;;
43142;SDS011;28750;59.842;17.584;2023-11-21T06:20:07;4.53;;;3.35;;
43142;SDS011;28750;59.842;17.584;2023-11-21T06:22:36;3.72;;;3.05;;
43142;SDS011;28750;59.842;17.584;2023-11-21T06:25:04;3.38;;;3.00;;
43142;SDS011;28750;59.842;17.584;2023-11-21T06:27:33;5.03;;;3.42;;
43142;SDS011;28750;59.842;17.584;2023-11-21T06:30:01;4.22;;;3.13;;
43142;SDS011;28750;59.842;17.584;2023-11-21T06:32:29;4.30;;;3.10;;
43142;SDS011;28750;59.842;17.584;2023-11-21T06:34:56;3.75;;;3.45;;
43142;SDS011;28750;59.842;17.584;2023-11-21T06:37:24;3.70;;;3.30;;
43142;SDS011;28750;59.842;17.584;2023-11-21T06:39:52;3.63;;;3.25;;
43142;SDS011;28750;59.842;17.584;2023-11-21T06:42:19;4.45;;;3.28;;
43142;SDS011;28750;59.842;17.584;2023-11-21T06:44:47;4.45;;;4.05;;
43142;SDS011;28750;59.842;17.584;2023-11-21T06:47:16;11.45;;;7.35;;
43142;SDS011;28750;59.842;17.584;2023-11-21T06:49:45;6.93;;;5.18;;
43142;SDS011;28750;59.842;17.584;2023-11-21T06:52:14;5.13;;;3.97;;
43142;SDS011;28750;59.842;17.584;2023-11-21T06:54:41;5.45;;;4.00;;
43142;SDS011;28750;59.842;17.584;2023-11-21T06:57:09;7.40;;;5.15;;
43142;SDS011;28750;59.842;17.584;2023-11-21T06:59:36;7.05;;;5.07;;
43142;SDS011;28750;59.842;17.584;2023-11-21T07:02:04;9.10;;;6.20;;
43142;SDS011;28750;59.842;17.584;2023-11-21T07:04:32;7.88;;;6.32;;
43142;SDS011;28750;59.842;17.584;2023-11-21T07:07:00;6.18;;;4.68;;
43142;SDS011;28750;59.842;17.584;2023-11-21T07:09:27;8.18;;;5.07;;
43142;SDS011;28750;59.842;17.584;2023-11-21T07:11:55;6.10;;;4.53;;
43142;SDS011;28750;59.842;17.584;2023-11-21T07:14:22;6.03;;;4.40;;
43142;SDS011;28750;59.842;17.584;2023-11-21T07:16:49;6.88;;;4.53;;
43142;SDS011;28750;59.842;17.584;2023-11-21T07:19:17;5.55;;;4.55;;
43142;SDS011;28750;59.842;17.584;2023-11-21T07:21:45;5.40;;;4.63;;
43142;SDS011;28750;59.842;17.584;2023-11-21T07:24:15;6.45;;;4.25;;
43142;SDS011;28750;59.842;17.584;2023-11-21T07:26:43;7.53;;;5.28;;
43142;SDS011;28750;59.842;17.584;2023-11-21T07:29:10;6.45;;;5.07;;
43142;SDS011;28750;59.842;17.584;2023-11-21T07:31:38;7.47;;;5.88;;
43142;SDS011;28750;59.842;17.584;2023-11-21T07:34:06;8.13;;;5.88;;
43142;SDS011;28750;59.842;17.584;2023-11-21T07:36:34;8.30;;;5.35;;
43142;SDS011;28750;59.842;17.584;2023-11-21T07:39:01;9.38;;;5.18;;
43142;SDS011;28750;59.842;17.584;2023-11-21T07:41:28;8.60;;;5.38;;
43142;SDS011;28750;59.842;17.584;2023-11-21T07:43:56;8.00;;;5.85;;
43142;SDS011;28750;59.842;17.584;2023-11-21T07:46:23;9.63;;;5.38;;
43142;SDS011;28750;59.842;17.584;2023-11-21T07:48:51;7.43;;;5.63;;
43142;SDS011;28750;59.842;17.584;2023-11-21T07:51:18;11.02;;;5.72;;
43142;SDS011;28750;59.842;17.584;2023-11-21T07:53:47;10.10;;;6.68;;
43142;SDS011;28750;59.842;17.584;2023-11-21T07:56:14;8.63;;;5.65;;
43142;SDS011;28750;59.842;17.584;2023-11-21T07:58:43;9.10;;;6.30;;
43142;SDS011;28750;59.842;17.584;2023-11-21T08:01:10;9.00;;;6.70;;
43142;SDS011;28750;59.842;17.584;2023-11-21T08:03:38;8.93;;;6.65;;
43142;SDS011;28750;59.842;17.584;2023-11-21T08:06:05;10.50;;;7.65;;
43142;SDS011;28750;59.842;17.584;2023-11-21T08:08:33;12.73;;;7.25;;
43142;SDS011;28750;59.842;17.584;2023-11-21T08:11:00;17.63;;;7.55;;
43142;SDS011;28750;59.842;17.584;2023-11-21T08:13:29;12.00;;;6.90;;
43142;SDS011;28750;59.842;17.584;2023-11-21T08:15:57;12.32;;;6.32;;
43142;SDS011;28750;59.842;17.584;2023-11-21T08:20:55;13.55;;;7.53;;
43142;SDS011;28750;59.842;17.584;2023-11-21T08:23:22;12.73;;;8.05;;
43142;SDS011;28750;59.842;17.584;2023-11-21T08:25:50;12.98;;;8.70;;
43142;SDS011;28750;59.842;17.584;2023-11-21T08:28:18;18.38;;;8.55;;
43142;SDS011;28750;59.842;17.584;2023-11-21T08:30:48;15.48;;;8.18;;
43142;SDS011;28750;59.842;17.584;2023-11-21T08:33:15;17.30;;;8.38;;
43142;SDS011;28750;59.842;17.584;2023-11-21T08:35:43;12.10;;;7.10;;
43142;SDS011;28750;59.842;17.584;2023-11-21T08:38:11;28.10;;;8.02;;
43142;SDS011;28750;59.842;17.584;2023-11-21T08:40:38;14.35;;;7.65;;
43142;SDS011;28750;59.842;17.584;2023-11-21T08:43:06;18.92;;;8.00;;
43142;SDS011;28750;59.842;17.584;2023-11-21T08:45:33;28.17;;;8.00;;
43142;SDS011;28750;59.842;17.584;2023-11-21T08:48:01;20.15;;;7.55;;
43142;SDS011;28750;59.842;17.584;2023-11-21T08:50:29;12.73;;;7.43;;
43142;SDS011;28750;59.842;17.584;2023-11-21T08:52:56;17.73;;;8.63;;
43142;SDS011;28750;59.842;17.584;2023-11-21T08:55:24;18.25;;;9.25;;
43142;SDS011;28750;59.842;17.584;2023-11-21T08:57:51;20.70;;;8.55;;
43142;SDS011;28750;59.842;17.584;2023-11-21T09:00:18;18.75;;;8.65;;
43142;SDS011;28750;59.842;17.584;2023-11-21T09:02:47;13.25;;;8.82;;
43142;SDS011;28750;59.842;17.584;2023-11-21T09:05:14;13.13;;;8.93;;
43142;SDS011;28750;59.842;17.584;2023-11-21T09:07:42;14.95;;;8.68;;
43142;SDS011;28750;59.842;17.584;2023-11-21T09:10:11;14.57;;;8.65;;
43142;SDS011;28750;59.842;17.584;2023-11-21T09:12:39;15.10;;;9.27;;
43142;SDS011;28750;59.842;17.584;2023-11-21T09:15:08;15.40;;;9.50;;
43142;SDS011;28750;59.842;17.584;2023-11-21T09:17:36;13.25;;;9.07;;
43142;SDS011;28750;59.842;17.584;2023-11-21T09:20:05;14.27;;;9.88;;
43142;SDS011;28750;59.842;17.584;2023-11-21T09:22:35;14.90;;;9.20;;
43142;SDS011;28750;59.842;17.584;2023-11-21T09:25:02;18.73;;;9.77;;
43142;SDS011;28750;59.842;17.584;2023-11-21T09:27:31;16.67;;;10.20;;
43142;SDS011;28750;59.842;17.584;2023-11-21T09:29:59;14.43;;;10.88;;
43142;SDS011;28750;59.842;17.584;2023-11-21T09:32:26;15.25;;;11.07;;
43142;SDS011;28750;59.842;17.584;2023-11-21T09:34:54;13.82;;;9.35;;
43142;SDS011;28750;59.842;17.584;2023-11-21T09:37:23;12.60;;;8.60;;
43142;SDS011;28750;59.842;17.584;2023-11-21T09:39:52;10.30;;;7.55;;
43142;SDS011;28750;59.842;17.584;2023-11-21T09:42:23;14.00;;;8.85;;
43142;SDS011;28750;59.842;17.584;2023-11-21T09:44:54;17.05;;;9.88;;
43142;SDS011;28750;59.842;17.584;2023-11-21T09:47:26;13.40;;;9.43;;
43142;SDS011;28750;59.842;17.584;2023-11-21T09:49:54;11.32;;;8.15;;
43142;SDS011;28750;59.842;17.584;2023-11-21T09:52:26;13.45;;;8.20;;
43142;SDS011;28750;59.842;17.584;2023-11-21T09:54:54;14.18;;;8.77;;
43142;SDS011;28750;59.842;17.584;2023-11-21T09:57:23;14.55;;;8.45;;
43142;SDS011;28750;59.842;17.584;2023-11-21T09:59:51;12.35;;;8.13;;
43142;SDS011;28750;59.842;17.584;2023-11-21T10:02:25;12.55;;;8.45;;
43142;SDS011;28750;59.842;17.584;2023-11-21T10:04:54;11.43;;;7.32;;
43142;SDS011;28750;59.842;17.584;2023-11-21T10:07:24;11.90;;;8.18;;
43142;SDS011;28750;59.842;17.584;2023-11-21T10:09:52;11.98;;;7.82;;
43142;SDS011;28750;59.842;17.584;2023-11-21T10:12:20;11.57;;;8.15;;
43142;SDS011;28750;59.842;17.584;2023-11-21T10:14:48;10.63;;;7.90;;
43142;SDS011;28750;59.842;17.584;2023-11-21T10:17:18;13.07;;;8.25;;
43142;SDS011;28750;59.842;17.584;2023-11-21T10:19:48;14.23;;;9.00;;
43142;SDS011;28750;59.842;17.584;2023-11-21T10:22:16;12.20;;;8.60;;
43142;SDS011;28750;59.842;17.584;2023-11-21T10:24:44;14.65;;;8.98;;
43142;SDS011;28750;59.842;17.584;2023-11-21T10:27:12;11.32;;;7.32;;
43142;SDS011;28750;59.842;17.584;2023-11-21T10:29:40;9.57;;;7.10;;
43142;SDS011;28750;59.842;17.584;2023-11-21T10:32:07;9.80;;;7.45;;
43142;SDS011;28750;59.842;17.584;2023-11-21T10:34:35;14.98;;;11.10;;
43142;SDS011;28750;59.842;17.584;2023-11-21T10:37:10;11.68;;;7.15;;
43142;SDS011;28750;59.842;17.584;2023-11-21T10:39:38;13.82;;;8.85;;
43142;SDS011;28750;59.842;17.584;2023-11-21T10:42:09;13.00;;;7.82;;
43142;SDS011;28750;59.842;17.584;2023-11-21T10:44:36;10.27;;;6.55;;
43142;SDS011;28750;59.842;17.584;2023-11-21T10:47:04;12.75;;;7.70;;
43142;SDS011;28750;59.842;17.584;2023-11-21T10:49:31;12.57;;;8.05;;
43142;SDS011;28750;59.842;17.584;2023-11-21T10:51:59;11.80;;;8.45;;
43142;SDS011;28750;59.842;17.584;2023-11-21T10:54:26;14.10;;;10.10;;
43142;SDS011;28750;59.842;17.584;2023-11-21T10:56:57;10.77;;;7.82;;
43142;SDS011;28750;59.842;17.584;2023-11-21T10:59:28;12.43;;;7.40;;
43142;SDS011;28750;59.842;17.584;2023-11-21T11:01:57;10.52;;;7.80;;
43142;SDS011;28750;59.842;17.584;2023-11-21T11:04:26;12.77;;;8.00;;
43142;SDS011;28750;59.842;17.584;2023-11-21T11:06:55;12.18;;;8.38;;
43142;SDS011;28750;59.842;17.584;2023-11-21T11:09:24;10.38;;;7.85;;
43142;SDS011;28750;59.842;17.584;2023-11-21T11:11:51;11.82;;;7.75;;
43142;SDS011;28750;59.842;17.584;2023-11-21T11:14:19;15.27;;;8.45;;
43142;SDS011;28750;59.842;17.584;2023-11-21T11:16:50;11.40;;;7.25;;
43142;SDS011;28750;59.842;17.584;2023-11-21T11:19:18;10.88;;;6.72;;
43142;SDS011;28750;59.842;17.584;2023-11-21T11:29:52;13.45;;;7.13;;
43142;SDS011;28750;59.842;17.584;2023-11-21T11:34:56;10.18;;;6.78;;
43142;SDS011;28750;59.842;17.584;2023-11-21T11:37:26;11.55;;;7.18;;
43142;SDS011;28750;59.842;17.584;2023-11-21T11:39:53;12.32;;;6.95;;
43142;SDS011;28750;59.842;17.584;2023-11-21T11:42:22;9.32;;;7.00;;
43142;SDS011;28750;59.842;17.584;2023-11-21T11:44:50;11.85;;;7.15;;
43142;SDS011;28750;59.842;17.584;2023-11-21T11:47:24;11.70;;;7.32;;
43142;SDS011;28750;59.842;17.584;2023-11-21T11:52:40;12.75;;;7.35;;
43142;SDS011;28750;59.842;17.584;2023-11-21T11:55:09;10.00;;;6.40;;
43142;SDS011;28750;59.842;17.584;2023-11-21T11:57:37;9.55;;;6.82;;
43142;SDS011;28750;59.842;17.584;2023-11-21T12:00:14;10.00;;;7.53;;
43142;SDS011;28750;59.842;17.584;2023-11-21T12:02:50;10.75;;;6.82;;
43142;SDS011;28750;59.842;17.584;2023-11-21T12:05:20;11.20;;;6.72;;
43142;SDS011;28750;59.842;17.584;2023-11-21T12:07:51;14.25;;;7.60;;
43142;SDS011;28750;59.842;17.584;2023-11-21T12:10:26;10.57;;;6.72;;
43142;SDS011;28750;59.842;17.584;2023-11-21T12:12:57;9.93;;;6.22;;
43142;SDS011;28750;59.842;17.584;2023-11-21T12:15:25;10.63;;;6.72;;
43142;SDS011;28750;59.842;17.584;2023-11-21T12:17:54;8.70;;;6.30;;
43142;SDS011;28750;59.842;17.584;2023-11-21T12:20:22;9.35;;;6.60;;
43142;SDS011;28750;59.842;17.584;2023-11-21T12:22:50;12.88;;;7.45;;
43142;SDS011;28750;59.842;17.584;2023-11-21T12:25:23;23.40;;;11.75;;
43142;SDS011;28750;59.842;17.584;2023-11-21T12:27:53;19.80;;;11.13;;
43142;SDS011;28750;59.842;17.584;2023-11-21T12:30:22;13.10;;;7.22;;
43142;SDS011;28750;59.842;17.584;2023-11-21T12:32:49;10.13;;;7.60;;
43142;SDS011;28750;59.842;17.584;2023-11-21T12:35:21;10.50;;;7.70;;
43142;SDS011;28750;59.842;17.584;2023-11-21T12:37:49;10.55;;;5.90;;
43142;SDS011;28750;59.842;17.584;2023-11-21T12:40:17;10.00;;;6.20;;
43142;SDS011;28750;59.842;17.584;2023-11-21T12:42:45;9.68;;;6.30;;
43142;SDS011;28750;59.842;17.584;2023-11-21T12:47:45;12.63;;;8.15;;
43142;SDS011;28750;59.842;17.584;2023-11-21T12:50:12;9.32;;;5.82;;
43142;SDS011;28750;59.842;17.584;2023-11-21T12:52:50;9.80;;;6.18;;
43142;SDS011;28750;59.842;17.584;2023-11-21T12:55:21;7.63;;;5.55;;
43142;SDS011;28750;59.842;17.584;2023-11-21T12:57:50;11.15;;;6.63;;
43142;SDS011;28750;59.842;17.584;2023-11-21T13:00:20;10.20;;;6.00;;
43142;SDS011;28750;59.842;17.584;2023-11-21T13:02:56;10.82;;;5.80;;
43142;SDS011;28750;59.842;17.584;2023-11-21T13:05:27;8.35;;;5.35;;
43142;SDS011;28750;59.842;17.584;2023-11-21T13:07:56;10.07;;;5.00;;
43142;SDS011;28750;59.842;17.584;2023-11-21T13:10:25;6.97;;;4.60;;
43142;SDS011;28750;59.842;17.584;2023-11-21T13:12:59;12.95;;;4.50;;
43142;SDS011;28750;59.842;17.584;2023-11-21T13:15:30;9.75;;;5.05;;
43142;SDS011;28750;59.842;17.584;2023-11-21T13:17:58;7.93;;;4.93;;
43142;SDS011;28750;59.842;17.584;2023-11-21T13:20:26;8.38;;;5.00;;
43142;SDS011;28750;59.842;17.584;2023-11-21T13:22:57;9.07;;;5.82;;
43142;SDS011;28750;59.842;17.584;2023-11-21T13:25:26;9.82;;;4.50;;
43142;SDS011;28750;59.842;17.584;2023-11-21T13:27:57;6.88;;;4.60;;
43142;SDS011;28750;59.842;17.584;2023-11-21T13:30:26;7.97;;;5.10;;
43142;SDS011;28750;59.842;17.584;2023-11-21T13:32:58;7.20;;;4.53;;
43142;SDS011;28750;59.842;17.584;2023-11-21T13:35:30;7.80;;;5.00;;
43142;SDS011;28750;59.842;17.584;2023-11-21T13:38:03;6.32;;;4.30;;
43142;SDS011;28750;59.842;17.584;2023-11-21T13:40:31;6.60;;;4.55;;
43142;SDS011;28750;59.842;17.584;2023-11-21T13:43:00;7.95;;;4.57;;
43142;SDS011;28750;59.842;17.584;2023-11-21T13:45:30;7.05;;;4.22;;
43142;SDS011;28750;59.842;17.584;2023-11-21T13:47:57;6.10;;;4.07;;
43142;SDS011;28750;59.842;17.584;2023-11-21T13:50:25;9.32;;;4.50;;
43142;SDS011;28750;59.842;17.584;2023-11-21T13:52:58;5.55;;;3.80;;
43142;SDS011;28750;59.842;17.584;2023-11-21T13:55:28;6.50;;;4.25;;
43142;SDS011;28750;59.842;17.584;2023-11-21T13:57:55;5.80;;;4.68;;
43142;SDS011;28750;59.842;17.584;2023-11-21T14:00:24;7.32;;;4.90;;
43142;SDS011;28750;59.842;17.584;2023-11-21T14:03:09;8.60;;;4.45;;
43142;SDS011;28750;59.842;17.584;2023-11-21T14:05:44;7.43;;;4.63;;
43142;SDS011;28750;59.842;17.584;2023-11-21T14:08:16;7.40;;;4.45;;
43142;SDS011;28750;59.842;17.584;2023-11-21T14:10:45;5.82;;;4.15;;
43142;SDS011;28750;59.842;17.584;2023-11-21T14:13:16;5.35;;;4.65;;
43142;SDS011;28750;59.842;17.584;2023-11-21T14:15:45;6.78;;;4.70;;
43142;SDS011;28750;59.842;17.584;2023-11-21T14:18:16;9.05;;;5.38;;
43142;SDS011;28750;59.842;17.584;2023-11-21T14:20:52;8.38;;;6.32;;
43142;SDS011;28750;59.842;17.584;2023-11-21T14:23:19;9.02;;;4.68;;
43142;SDS011;28750;59.842;17.584;2023-11-21T14:25:48;8.73;;;6.40;;
43142;SDS011;28750;59.842;17.584;2023-11-21T14:28:17;9.45;;;6.00;;
43142;SDS011;28750;59.842;17.584;2023-11-21T14:30:45;9.05;;;6.32;;
43142;SDS011;28750;59.842;17.584;2023-11-21T14:33:13;7.32;;;5.97;;
43142;SDS011;28750;59.842;17.584;2023-11-21T14:35:41;8.02;;;4.93;;
43142;SDS011;28750;59.842;17.584;2023-11-21T14:38:09;18.08;;;15.10;;
43142;SDS011;28750;59.842;17.584;2023-11-21T14:40:39;10.82;;;7.20;;
43142;SDS011;28750;59.842;17.584;2023-11-21T14:43:06;7.90;;;5.28;;
43142;SDS011;28750;59.842;17.584;2023-11-21T14:45:33;8.45;;;5.50;;
43142;SDS011;28750;59.842;17.584;2023-11-21T14:48:01;13.18;;;8.13;;
43142;SDS011;28750;59.842;17.584;2023-11-21T14:50:41;10.68;;;6.53;;
43142;SDS011;28750;59.842;17.584;2023-11-21T14:53:22;27.65;;;12.35;;
43142;SDS011;28750;59.842;17.584;2023-11-21T14:56:08;17.50;;;8.20;;
43142;SDS011;28750;59.842;17.584;2023-11-21T14:58:34;25.67;;;11.30;;